createdAt,value
2023-05-10T00:05:03.969Z,69.03
2023-05-10T00:07:31.494Z,73.85
2023-05-10T00:09:58.957Z,69.10
2023-05-10T00:12:26.744Z,68.80
2023-05-10T00:14:54.363Z,65.47
2023-05-10T00:17:22.472Z,69.97
2023-05-10T00:19:55.190Z,66.10
2023-05-10T00:22:23.202Z,65.57
2023-05-10T00:24:55.742Z,62.08
2023-05-10T00:27:23.597Z,65.57
2023-05-10T00:29:51.226Z,58.58
2023-05-10T00:32:23.198Z,58.38
2023-05-10T00:34:50.842Z,64.93
2023-05-10T00:37:23.559Z,70.78
2023-05-10T00:39:52.624Z,62.50
2023-05-10T00:42:20.188Z,66.30
2023-05-10T00:44:50.659Z,56.95
2023-05-10T00:47:19.714Z,60.58
2023-05-10T00:49:49.636Z,68.25
2023-05-10T00:52:19.578Z,64.30
2023-05-10T00:54:50.311Z,64.55
2023-05-10T00:57:18.479Z,62.25
2023-05-10T00:59:47.679Z,64.15
2023-05-10T01:02:15.472Z,66.70
2023-05-10T01:04:45.083Z,68.80
2023-05-10T01:07:12.969Z,86.82
2023-05-10T01:09:40.916Z,73.45
2023-05-10T01:12:11.458Z,76.57
2023-05-10T01:14:39.426Z,83.75
2023-05-10T01:17:10.859Z,83.95
2023-05-10T01:22:26.228Z,88.47
2023-05-10T01:24:57.488Z,93.20
2023-05-10T01:27:44.073Z,91.38
2023-05-10T01:30:21.968Z,98.10
2023-05-10T01:33:02.557Z,89.47
2023-05-10T01:35:49.117Z,91.72
2023-05-10T01:38:19.110Z,93.78
2023-05-10T01:40:56.136Z,96.95
2023-05-10T01:43:26.444Z,105.05
2023-05-10T01:46:08.538Z,108.82
2023-05-10T01:48:36.515Z,108.22
2023-05-10T01:51:06.452Z,111.03
2023-05-10T01:53:37.383Z,108.05
2023-05-10T01:56:06.650Z,109.30
2023-05-10T01:58:36.464Z,105.07
2023-05-10T02:01:07.271Z,100.32
2023-05-10T02:03:37.799Z,99.00
2023-05-10T02:08:34.972Z,112.93
2023-05-10T02:11:06.476Z,116.15
2023-05-10T02:13:35.760Z,106.30
2023-05-10T02:16:04.087Z,98.97
2023-05-10T02:18:33.513Z,106.22
2023-05-10T02:21:01.903Z,110.43
2023-05-10T02:23:30.132Z,106.82
2023-05-10T02:25:59.039Z,109.60
2023-05-10T02:28:28.814Z,107.95
2023-05-10T02:30:57.021Z,95.97
2023-05-10T02:33:25.523Z,103.88
2023-05-10T02:35:54.238Z,99.80
2023-05-10T02:38:23.373Z,97.30
2023-05-10T02:40:52.478Z,107.03
2023-05-10T02:43:23.714Z,100.53
2023-05-10T02:45:54.350Z,115.65
2023-05-10T02:48:22.229Z,111.22
2023-05-10T02:50:52.637Z,114.80
2023-05-10T02:53:23.059Z,106.47
2023-05-10T02:55:52.843Z,123.07
2023-05-10T02:58:21.903Z,123.03
2023-05-10T03:00:50.796Z,130.05
2023-05-10T03:03:20.316Z,122.20
2023-05-10T03:05:50.610Z,125.75
2023-05-10T03:08:18.986Z,115.03
2023-05-10T03:11:05.439Z,119.63
2023-05-10T03:13:38.152Z,116.72
2023-05-10T03:16:23.010Z,117.00
2023-05-10T03:18:56.620Z,107.03
2023-05-10T03:21:25.461Z,115.63
2023-05-10T03:24:01.449Z,113.03
2023-05-10T03:26:29.886Z,113.82
2023-05-10T03:29:15.590Z,101.13
2023-05-10T03:31:47.908Z,121.53
2023-05-10T03:34:18.931Z,113.65
2023-05-10T03:36:49.366Z,116.95
2023-05-10T03:41:52.372Z,109.18
2023-05-10T03:44:20.211Z,116.22
2023-05-10T03:46:50.913Z,116.88
2023-05-10T03:49:20.229Z,117.30
2023-05-10T03:51:49.933Z,134.23
2023-05-10T03:54:19.069Z,110.80
2023-05-10T03:56:49.394Z,123.47
2023-05-10T03:59:30.921Z,121.40
2023-05-10T04:01:58.926Z,119.28
2023-05-10T04:04:26.485Z,114.63
2023-05-10T04:06:54.474Z,118.60
2023-05-10T04:09:24.911Z,119.80
2023-05-10T04:11:53.065Z,127.43
2023-05-10T04:14:21.096Z,123.30
2023-05-10T04:16:49.454Z,139.52
2023-05-10T04:19:17.609Z,124.78
2023-05-10T04:21:45.430Z,119.97
2023-05-10T04:24:14.055Z,130.13
2023-05-10T04:26:41.747Z,128.57
2023-05-10T04:29:09.824Z,131.48
2023-05-10T04:31:38.055Z,129.68
2023-05-10T04:34:06.171Z,123.10
2023-05-10T04:36:37.383Z,118.10
2023-05-10T04:39:05.298Z,127.35
2023-05-10T04:41:33.195Z,122.13
2023-05-10T04:44:00.933Z,122.95
2023-05-10T04:46:28.700Z,126.90
2023-05-10T04:48:56.343Z,115.65
2023-05-10T04:51:23.924Z,125.55
2023-05-10T04:54:04.569Z,122.65
2023-05-10T04:56:35.459Z,125.13
2023-05-10T04:59:04.148Z,115.88
2023-05-10T05:01:32.228Z,124.63
2023-05-10T05:04:01.231Z,119.65
2023-05-10T05:06:28.805Z,111.68
2023-05-10T05:08:56.760Z,113.07
2023-05-10T05:11:24.641Z,110.60
2023-05-10T05:13:52.597Z,105.72
2023-05-10T05:16:24.605Z,106.25
2023-05-10T05:18:52.868Z,114.30
2023-05-10T05:21:21.541Z,102.50
2023-05-10T05:23:51.856Z,117.13
2023-05-10T05:26:31.977Z,114.45
2023-05-10T05:29:00.045Z,110.38
2023-05-10T05:31:27.833Z,117.95
2023-05-10T05:33:56.666Z,120.05
2023-05-10T05:36:24.587Z,120.57
2023-05-10T05:38:52.522Z,129.25
2023-05-10T05:41:22.014Z,123.07
2023-05-10T05:43:51.451Z,133.32
2023-05-10T05:46:20.259Z,126.45
2023-05-10T05:48:50.538Z,133.53
2023-05-10T05:51:20.447Z,131.48
2023-05-10T05:53:48.451Z,130.52
2023-05-10T05:56:25.646Z,122.15
2023-05-10T05:58:54.155Z,131.43
2023-05-10T06:01:22.255Z,136.93
2023-05-10T06:03:52.609Z,130.07
2023-05-10T06:06:24.398Z,114.43
2023-05-10T06:08:52.581Z,116.30
2023-05-10T06:11:27.430Z,107.88
2023-05-10T06:13:55.588Z,103.28
2023-05-10T06:16:23.922Z,105.15
2023-05-10T06:18:52.278Z,111.38
2023-05-10T06:21:20.821Z,108.70
2023-05-10T06:23:52.358Z,110.75
2023-05-10T06:26:20.317Z,108.20
2023-05-10T06:28:51.307Z,103.25
2023-05-10T06:31:23.914Z,107.32
2023-05-10T06:33:54.161Z,113.95
2023-05-10T06:36:27.750Z,109.82
2023-05-10T06:38:55.967Z,110.20
2023-05-10T06:41:24.885Z,118.05
2023-05-10T06:43:53.747Z,118.85
2023-05-10T06:46:23.415Z,126.18
2023-05-10T06:48:51.804Z,127.68
2023-05-10T06:51:22.529Z,135.65
2023-05-10T06:53:53.243Z,126.40
2023-05-10T06:56:22.741Z,121.22
2023-05-10T06:58:50.492Z,126.78
2023-05-10T07:01:20.183Z,126.70
2023-05-10T07:03:50.605Z,125.13
2023-05-10T07:06:32.386Z,118.03
2023-05-10T07:09:01.709Z,102.45
2023-05-10T07:11:29.867Z,109.70
2023-05-10T07:13:57.309Z,104.75
2023-05-10T07:16:25.213Z,96.35
2023-05-10T07:18:54.078Z,97.80
2023-05-10T07:21:30.872Z,107.80
2023-05-10T07:23:58.810Z,99.43
2023-05-10T07:26:26.939Z,102.20
2023-05-10T07:28:54.876Z,97.03
2023-05-10T07:31:22.966Z,89.80
2023-05-10T07:33:51.130Z,85.22
2023-05-10T07:36:22.558Z,89.38
2023-05-10T07:38:50.656Z,88.70
2023-05-10T07:41:19.971Z,85.57
2023-05-10T07:43:48.751Z,90.72
2023-05-10T07:46:19.704Z,86.82
2023-05-10T07:48:48.991Z,83.72
2023-05-10T07:51:17.429Z,84.85
2023-05-10T07:53:45.430Z,87.53
2023-05-10T07:56:27.651Z,94.97
2023-05-10T07:58:56.356Z,94.50
2023-05-10T08:01:25.001Z,97.35
2023-05-10T08:03:54.563Z,96.43
2023-05-10T08:06:22.639Z,93.47
2023-05-10T08:08:52.077Z,103.68
2023-05-10T08:11:20.129Z,107.32
2023-05-10T08:13:49.012Z,105.28
2023-05-10T08:16:18.977Z,98.72
2023-05-10T08:18:48.646Z,99.47
2023-05-10T08:21:17.343Z,93.35
2023-05-10T08:23:45.339Z,81.45
2023-05-10T08:26:13.329Z,85.57
2023-05-10T08:28:41.138Z,86.10
2023-05-10T08:31:09.278Z,78.10
2023-05-10T08:33:36.901Z,79.97
2023-05-10T08:36:04.747Z,86.90
2023-05-10T08:38:32.593Z,85.95
2023-05-10T08:41:00.601Z,80.15
2023-05-10T08:43:37.765Z,85.93
2023-05-10T08:46:07.327Z,90.22
2023-05-10T08:48:40.790Z,91.43
2023-05-10T08:51:10.724Z,79.47
2023-05-10T08:53:39.167Z,71.38
2023-05-10T08:56:07.130Z,71.32
2023-05-10T08:58:35.193Z,77.10
2023-05-10T09:01:03.472Z,72.13
2023-05-10T09:03:32.021Z,81.32
2023-05-10T09:06:00.370Z,62.97
2023-05-10T09:08:29.817Z,63.97
2023-05-10T09:10:57.817Z,72.07
2023-05-10T09:13:25.818Z,67.75
2023-05-10T09:15:53.762Z,60.42
2023-05-10T09:18:22.803Z,66.15
2023-05-10T09:20:50.943Z,66.05
2023-05-10T09:23:19.738Z,60.88
2023-05-10T09:25:48.103Z,68.63
2023-05-10T09:28:16.831Z,61.20
2023-05-10T09:30:56.723Z,63.35
2023-05-10T09:33:24.802Z,59.57
2023-05-10T09:35:53.525Z,60.42
2023-05-10T09:38:21.282Z,63.28
2023-05-10T09:40:55.690Z,59.33
2023-05-10T09:43:23.553Z,58.72
2023-05-10T09:45:51.535Z,54.22
2023-05-10T09:48:20.508Z,42.55
2023-05-10T09:50:58.306Z,43.05
2023-05-10T09:53:26.134Z,45.03
2023-05-10T09:55:53.728Z,40.03
2023-05-10T09:58:21.254Z,43.38
2023-05-10T10:00:52.579Z,39.67
2023-05-10T10:03:25.620Z,38.00
2023-05-10T10:05:55.440Z,37.05
2023-05-10T10:08:22.953Z,43.95
2023-05-10T10:10:53.673Z,40.90
2023-05-10T10:13:21.623Z,40.33
2023-05-10T10:15:52.300Z,40.72
2023-05-10T10:18:24.894Z,42.67
2023-05-10T10:20:59.148Z,47.42
2023-05-10T10:23:27.231Z,38.67
2023-05-10T10:25:56.658Z,34.85
2023-05-10T10:28:29.187Z,41.97
2023-05-10T10:30:58.152Z,42.17
2023-05-10T10:33:46.261Z,40.30
2023-05-10T10:36:20.526Z,40.83
2023-05-10T10:38:49.906Z,38.58
2023-05-10T10:41:38.102Z,36.17
2023-05-10T10:44:27.117Z,39.03
2023-05-10T10:47:03.195Z,33.25
2023-05-10T10:49:34.724Z,34.30
2023-05-10T10:52:35.223Z,37.42
2023-05-10T10:55:05.345Z,34.63
2023-05-10T10:57:44.781Z,29.10
2023-05-10T11:00:29.627Z,30.23
2023-05-10T11:03:09.565Z,24.67
2023-05-10T11:05:44.522Z,21.67
2023-05-10T11:08:13.800Z,22.02
2023-05-10T11:11:04.021Z,24.42
2023-05-10T11:13:31.566Z,18.40
2023-05-10T11:16:00.011Z,16.73
2023-05-10T11:18:32.048Z,14.73
2023-05-10T11:21:01.062Z,13.52
2023-05-10T11:23:49.498Z,14.02
2023-05-10T11:26:18.488Z,14.45
2023-05-10T11:28:49.054Z,12.27
2023-05-10T11:31:20.380Z,12.82
2023-05-10T11:33:55.415Z,19.75
2023-05-10T11:36:26.888Z,16.42
2023-05-10T11:38:55.064Z,14.95
2023-05-10T11:41:23.141Z,12.00
2023-05-10T11:43:54.848Z,12.80
2023-05-10T11:46:23.919Z,11.32
2023-05-10T11:48:52.261Z,10.73
2023-05-10T11:51:38.321Z,11.93
2023-05-10T11:54:10.422Z,12.18
2023-05-10T11:56:41.233Z,11.88
2023-05-10T11:59:09.428Z,11.10
2023-05-10T12:01:37.391Z,12.35
2023-05-10T12:04:05.281Z,11.98
2023-05-10T12:06:33.956Z,10.52
2023-05-10T12:09:04.907Z,11.73
2023-05-10T12:11:32.579Z,11.88
2023-05-10T12:14:00.532Z,11.63
2023-05-10T12:16:30.765Z,15.90
2023-05-10T12:18:59.991Z,14.52
2023-05-10T12:21:28.373Z,12.82
2023-05-10T12:23:57.149Z,13.40
2023-05-10T12:26:27.612Z,15.07
2023-05-10T12:31:22.562Z,14.45
2023-05-10T12:33:50.576Z,13.88
2023-05-10T12:36:19.107Z,16.25
2023-05-10T12:38:49.870Z,13.27
2023-05-10T12:41:19.620Z,17.17
2023-05-10T12:43:50.652Z,13.98
2023-05-10T12:46:22.772Z,15.93
2023-05-10T12:49:07.906Z,18.63
2023-05-10T12:51:36.977Z,15.15
2023-05-10T12:54:04.908Z,14.00
2023-05-10T12:56:34.935Z,13.73
2023-05-10T12:59:02.703Z,13.45
2023-05-10T13:01:30.485Z,13.93
2023-05-10T13:03:58.245Z,17.02
2023-05-10T13:06:26.150Z,12.57
2023-05-10T13:08:53.985Z,16.77
2023-05-10T13:11:22.698Z,16.80
2023-05-10T13:13:50.490Z,13.23
2023-05-10T13:16:18.798Z,14.07
2023-05-10T13:18:50.301Z,20.13
2023-05-10T13:21:18.893Z,14.35
2023-05-10T13:23:48.532Z,14.23
2023-05-10T13:26:17.188Z,17.10
2023-05-10T13:28:47.492Z,15.15
2023-05-10T13:31:15.201Z,16.35
2023-05-10T13:33:42.887Z,16.65
2023-05-10T13:36:11.641Z,13.45
2023-05-10T13:38:39.555Z,14.25
2023-05-10T13:41:08.399Z,12.95
2023-05-10T13:43:37.182Z,13.65
2023-05-10T13:46:05.437Z,16.75
2023-05-10T13:48:37.448Z,13.35
2023-05-10T13:51:06.607Z,13.60
2023-05-10T13:53:34.510Z,14.38
2023-05-10T13:56:03.308Z,12.25
2023-05-10T13:58:33.083Z,17.02
2023-05-10T14:01:00.742Z,12.90
2023-05-10T14:03:28.584Z,16.65
2023-05-10T14:05:56.245Z,14.70
2023-05-10T14:08:28.726Z,15.77
2023-05-10T14:10:57.697Z,18.20
2023-05-10T14:13:26.088Z,17.92
2023-05-10T14:15:54.721Z,20.85
2023-05-10T14:18:22.560Z,17.88
2023-05-10T14:20:50.433Z,19.77
2023-05-10T14:23:21.018Z,22.60
2023-05-10T14:25:49.221Z,22.95
2023-05-10T14:28:17.310Z,24.88
2023-05-10T14:30:45.501Z,23.83
2023-05-10T14:33:17.612Z,21.00
2023-05-10T14:35:49.386Z,25.38
2023-05-10T14:38:26.065Z,22.17
2023-05-10T14:40:54.392Z,22.85
2023-05-10T14:43:22.145Z,17.65
2023-05-10T14:45:50.420Z,14.90
2023-05-10T14:48:26.123Z,15.13
2023-05-10T14:50:54.022Z,11.32
2023-05-10T14:53:21.583Z,11.90
2023-05-10T14:55:50.144Z,12.98
2023-05-10T14:58:18.225Z,12.05
2023-05-10T15:00:47.422Z,13.77
2023-05-10T15:03:17.332Z,10.30
2023-05-10T15:05:49.015Z,10.87
2023-05-10T15:08:24.037Z,13.52
2023-05-10T15:10:53.842Z,12.23
2023-05-10T15:13:21.696Z,9.95
2023-05-10T15:15:49.667Z,9.80
2023-05-10T15:18:18.796Z,10.10
2023-05-10T15:20:49.404Z,11.25
2023-05-10T15:23:18.611Z,10.82
2023-05-10T15:25:47.500Z,11.85
2023-05-10T15:28:15.325Z,10.30
2023-05-10T15:30:43.177Z,11.43
2023-05-10T15:33:10.970Z,9.50
2023-05-10T15:35:39.401Z,9.05
2023-05-10T15:38:07.401Z,7.70
2023-05-10T15:40:35.174Z,9.35
2023-05-10T15:43:02.850Z,8.20
2023-05-10T15:45:30.662Z,11.18
2023-05-10T15:48:00.280Z,7.97
2023-05-10T15:50:35.427Z,8.43
2023-05-10T15:53:03.086Z,7.95
2023-05-10T15:55:35.560Z,9.00
2023-05-10T15:58:03.651Z,7.70
2023-05-10T16:00:31.388Z,7.45
2023-05-10T16:02:59.424Z,7.80
2023-05-10T16:05:30.300Z,8.32
2023-05-10T16:08:00.716Z,14.18
2023-05-10T16:10:28.590Z,7.53
2023-05-10T16:12:56.456Z,7.95
2023-05-10T16:15:24.237Z,11.40
2023-05-10T16:17:52.010Z,8.90
2023-05-10T16:20:21.122Z,9.90
2023-05-10T16:22:52.071Z,10.13
2023-05-10T16:25:22.902Z,9.95
2023-05-10T16:27:51.264Z,11.48
2023-05-10T16:30:23.723Z,12.55
2023-05-10T16:32:52.138Z,12.60
2023-05-10T16:35:24.115Z,10.02
2023-05-10T16:37:51.987Z,10.43
2023-05-10T16:40:20.262Z,12.68
2023-05-10T16:42:48.615Z,10.85
2023-05-10T16:45:17.387Z,11.85
2023-05-10T16:47:45.351Z,14.18
2023-05-10T16:50:13.219Z,12.98
2023-05-10T16:52:40.721Z,13.68
2023-05-10T16:55:08.601Z,12.05
2023-05-10T16:57:36.234Z,11.90
2023-05-10T17:00:05.436Z,16.88
2023-05-10T17:02:33.728Z,15.10
2023-05-10T17:05:01.881Z,14.65
2023-05-10T17:07:30.069Z,13.73
2023-05-10T17:09:59.276Z,15.65
2023-05-10T17:12:27.057Z,19.17
2023-05-10T17:14:55.173Z,19.48
2023-05-10T17:17:23.864Z,18.77
2023-05-10T17:19:51.966Z,14.88
2023-05-10T17:22:31.330Z,15.68
2023-05-10T17:24:58.931Z,18.42
2023-05-10T17:27:27.955Z,16.27
2023-05-10T17:29:58.999Z,18.13
2023-05-10T17:32:28.104Z,16.20
2023-05-10T17:34:56.371Z,17.50
2023-05-10T17:37:24.153Z,18.02
2023-05-10T17:39:51.991Z,19.30
2023-05-10T17:42:21.316Z,19.08
2023-05-10T17:44:49.667Z,19.00
2023-05-10T17:47:20.890Z,16.33
2023-05-10T17:49:51.564Z,18.58
2023-05-10T17:52:22.362Z,17.52
2023-05-10T17:54:52.613Z,14.57
2023-05-10T17:57:20.903Z,17.77
2023-05-10T17:59:49.900Z,16.92
2023-05-10T18:02:19.342Z,17.58
2023-05-10T18:04:49.352Z,17.80
2023-05-10T18:07:18.411Z,17.80
2023-05-10T18:09:47.384Z,14.77
2023-05-10T18:12:15.541Z,16.92
2023-05-10T18:14:42.956Z,14.90
2023-05-10T18:17:10.943Z,18.25
2023-05-10T18:19:45.483Z,22.55
2023-05-10T18:22:13.292Z,22.13
2023-05-10T18:24:40.898Z,17.65
2023-05-10T18:27:11.465Z,19.88
2023-05-10T18:29:40.558Z,17.98
2023-05-10T18:32:11.889Z,17.97
2023-05-10T18:34:39.407Z,20.30
2023-05-10T18:37:08.094Z,18.00
2023-05-10T18:39:37.746Z,21.80
2023-05-10T18:42:06.266Z,15.55
2023-05-10T18:44:33.997Z,20.45
2023-05-10T18:47:01.640Z,17.63
2023-05-10T18:49:29.441Z,19.90
2023-05-10T18:51:57.134Z,20.27
2023-05-10T18:54:24.881Z,18.23
2023-05-10T18:56:52.785Z,20.30
2023-05-10T18:59:20.503Z,19.83
2023-05-10T19:01:51.374Z,21.25
2023-05-10T19:04:19.596Z,17.27
2023-05-10T19:06:51.183Z,21.77
2023-05-10T19:09:20.278Z,20.55
2023-05-10T19:11:48.833Z,19.83
2023-05-10T19:14:22.435Z,19.08
2023-05-10T19:16:50.449Z,18.08
2023-05-10T19:19:21.514Z,22.67
2023-05-10T19:21:50.361Z,22.83
2023-05-10T19:24:23.541Z,22.92
2023-05-10T19:26:51.672Z,25.55
2023-05-10T19:29:20.902Z,20.33
2023-05-10T19:31:53.304Z,20.42
2023-05-10T19:34:22.341Z,20.08
2023-05-10T19:36:51.802Z,19.58
2023-05-10T19:39:19.742Z,20.53
2023-05-10T19:41:52.052Z,20.52
2023-05-10T19:44:20.226Z,22.48
2023-05-10T19:46:48.986Z,20.65
2023-05-10T19:49:19.309Z,20.48
2023-05-10T19:51:49.326Z,28.60
2023-05-10T19:54:18.916Z,23.45
2023-05-10T19:56:49.735Z,26.50
2023-05-10T19:59:20.839Z,26.90
2023-05-10T20:01:53.503Z,25.50
2023-05-10T20:04:21.857Z,24.60
2023-05-10T20:06:49.720Z,22.00
2023-05-10T20:09:19.563Z,21.08
2023-05-10T20:11:52.362Z,24.10
2023-05-10T20:14:19.953Z,27.20
2023-05-10T20:16:52.898Z,25.95
2023-05-10T20:19:20.691Z,21.15
2023-05-10T20:21:51.115Z,20.67
2023-05-10T20:24:19.891Z,25.15
2023-05-10T20:26:51.129Z,23.55
2023-05-10T20:29:19.486Z,27.80
2023-05-10T20:31:50.311Z,24.65
2023-05-10T20:34:20.991Z,22.63
2023-05-10T20:36:52.213Z,19.65
2023-05-10T20:39:20.655Z,24.05
2023-05-10T20:41:49.577Z,19.98
2023-05-10T20:44:19.074Z,21.40
2023-05-10T20:46:49.033Z,21.08
2023-05-10T20:49:18.892Z,22.92
2023-05-10T20:51:49.480Z,22.10
2023-05-10T20:54:20.048Z,23.25
2023-05-10T20:56:51.604Z,21.58
2023-05-10T20:59:22.355Z,24.45
2023-05-10T21:01:50.265Z,20.52
2023-05-10T21:04:19.411Z,20.70
2023-05-10T21:06:50.248Z,22.27
2023-05-10T21:09:18.432Z,22.40
2023-05-10T21:11:47.111Z,24.50
2023-05-10T21:14:15.280Z,24.92
2023-05-10T21:16:44.374Z,21.02
2023-05-10T21:19:12.762Z,20.02
2023-05-10T21:21:42.209Z,24.13
2023-05-10T21:24:10.266Z,23.13
2023-05-10T21:26:39.230Z,24.45
2023-05-10T21:29:10.714Z,22.15
2023-05-10T21:31:38.292Z,22.27
2023-05-10T21:34:08.256Z,22.38
2023-05-10T21:36:35.991Z,21.10
2023-05-10T21:39:03.618Z,21.48
2023-05-10T21:41:31.183Z,21.35
2023-05-10T21:43:59.177Z,23.23
2023-05-10T21:46:28.526Z,26.85
2023-05-10T21:48:56.536Z,24.35
2023-05-10T21:51:24.107Z,21.95
2023-05-10T21:53:51.809Z,24.83
2023-05-10T21:56:19.479Z,24.20
2023-05-10T21:58:49.948Z,23.83
2023-05-10T22:01:21.778Z,27.00
2023-05-10T22:03:49.820Z,25.42
2023-05-10T22:06:20.786Z,26.30
2023-05-10T22:08:49.014Z,26.77
2023-05-10T22:11:17.494Z,27.50
2023-05-10T22:13:45.385Z,28.98
2023-05-10T22:16:13.583Z,32.95
2023-05-10T22:18:41.316Z,27.95
2023-05-10T22:21:09.854Z,27.42
2023-05-10T22:23:37.843Z,25.27
2023-05-10T22:26:05.481Z,31.25
2023-05-10T22:28:34.615Z,26.63
2023-05-10T22:31:02.175Z,27.10
2023-05-10T22:33:29.850Z,33.00
2023-05-10T22:36:00.618Z,25.67
2023-05-10T22:38:28.676Z,30.92
2023-05-10T22:40:57.353Z,25.80
2023-05-10T22:43:24.824Z,29.45
2023-05-10T22:45:52.734Z,28.20
2023-05-10T22:48:20.979Z,28.58
2023-05-10T22:50:52.898Z,24.90
2023-05-10T22:53:25.518Z,24.85
2023-05-10T22:55:54.158Z,25.17
2023-05-10T22:58:25.949Z,26.30
2023-05-10T23:00:58.293Z,32.38
2023-05-10T23:03:25.759Z,31.30
2023-05-10T23:05:53.486Z,29.17
2023-05-10T23:08:21.384Z,28.70
2023-05-10T23:10:53.454Z,28.20
2023-05-10T23:13:21.991Z,26.92
2023-05-10T23:15:49.765Z,27.67
2023-05-10T23:18:20.977Z,27.58
2023-05-10T23:20:53.606Z,30.13
2023-05-10T23:23:21.271Z,25.33
2023-05-10T23:25:50.012Z,26.70
2023-05-10T23:28:18.965Z,29.20
2023-05-10T23:30:47.304Z,24.95
2023-05-10T23:33:15.114Z,28.33
2023-05-10T23:35:43.388Z,29.85
2023-05-10T23:38:11.097Z,27.80
2023-05-10T23:40:40.197Z,24.42
2023-05-10T23:43:07.954Z,26.15
2023-05-10T23:45:39.485Z,29.80
2023-05-10T23:48:07.003Z,29.73
2023-05-10T23:50:34.756Z,29.42
2023-05-10T23:53:02.411Z,29.70
2023-05-10T23:55:30.075Z,26.88
2023-05-10T23:57:58.424Z,28.65
